createdAt,value
2019-01-16T00:00:20.946Z,99180.00
2019-01-16T00:02:51.944Z,99181.00
2019-01-16T00:05:40.870Z,99187.00
2019-01-16T00:08:11.881Z,99178.00
2019-01-16T00:10:48.310Z,99180.00
2019-01-16T00:13:35.537Z,99189.00
2019-01-16T00:16:06.333Z,99184.00
2019-01-16T00:18:53.620Z,99177.00
2019-01-16T00:21:30.457Z,99193.00
2019-01-16T00:24:04.100Z,99180.00
2019-01-16T00:26:51.677Z,99188.00
2019-01-16T00:29:39.095Z,99189.00
2019-01-16T00:32:09.855Z,99191.00
2019-01-16T00:34:55.921Z,99186.00
2019-01-16T00:37:38.879Z,99191.00
2019-01-16T00:40:29.071Z,99198.00
2019-01-16T00:43:05.692Z,99194.00
2019-01-16T00:45:48.515Z,99196.00
2019-01-16T00:48:25.442Z,99201.00
2019-01-16T00:51:11.087Z,99193.00
2019-01-16T00:53:42.106Z,99199.00
2019-01-16T00:56:18.949Z,99193.00
2019-01-16T00:59:05.047Z,99209.00
2019-01-16T01:01:36.115Z,99203.00
2019-01-16T01:04:23.539Z,99209.00
2019-01-16T01:07:12.546Z,99202.00
2019-01-16T01:09:43.603Z,99217.00
2019-01-16T01:12:37.503Z,99205.00
2019-01-16T01:15:10.178Z,99208.00
2019-01-16T01:17:40.897Z,99213.00
2019-01-16T01:20:17.641Z,99220.00
2019-01-16T01:22:51.129Z,99220.00
2019-01-16T01:25:24.589Z,99219.00
2019-01-16T01:28:11.854Z,99226.00
2019-01-16T01:30:51.720Z,99221.00
2019-01-16T01:33:29.011Z,99223.00
2019-01-16T01:36:18.306Z,99231.00
2019-01-16T01:38:49.434Z,99225.00
2019-01-16T01:41:32.356Z,99222.00
2019-01-16T01:44:15.009Z,99230.00
2019-01-16T01:46:51.215Z,99226.00
2019-01-16T01:49:24.896Z,99229.00
2019-01-16T01:51:55.651Z,99229.00
2019-01-16T01:54:29.472Z,99223.00
2019-01-16T01:57:00.478Z,99226.00
2019-01-16T01:59:31.210Z,99229.00
2019-01-16T02:02:01.937Z,99231.00
2019-01-16T02:04:49.286Z,99241.00
2019-01-16T02:07:36.278Z,99240.00
2019-01-16T02:10:15.158Z,99237.00
2019-01-16T02:13:02.161Z,99235.00
2019-01-16T02:15:33.175Z,99237.00
2019-01-16T02:18:03.892Z,99235.00
2019-01-16T02:20:34.981Z,99230.00
2019-01-16T02:23:22.276Z,99226.00
2019-01-16T02:26:09.448Z,99239.00
2019-01-16T02:28:48.710Z,99244.00
2019-01-16T02:31:25.489Z,99240.00
2019-01-16T02:33:59.135Z,99232.00
2019-01-16T02:36:35.320Z,99241.00
2019-01-16T02:39:10.360Z,99240.00
2019-01-16T02:41:41.374Z,99245.00
2019-01-16T02:44:30.785Z,99234.00
2019-01-16T02:47:07.418Z,99238.00
2019-01-16T02:49:41.266Z,99240.00
2019-01-16T02:52:12.004Z,99229.00
2019-01-16T02:54:51.433Z,99235.00
2019-01-16T02:57:31.711Z,99238.00
2019-01-16T03:00:02.436Z,99239.00
2019-01-16T03:02:48.498Z,99230.00
2019-01-16T03:05:22.251Z,99236.00
2019-01-16T03:07:58.821Z,99222.00
2019-01-16T03:10:29.795Z,99234.00
2019-01-16T03:13:16.587Z,99230.00
2019-01-16T03:16:03.281Z,99230.00
2019-01-16T03:18:34.272Z,99223.00
2019-01-16T03:21:04.986Z,99233.00
2019-01-16T03:23:36.008Z,99223.00
2019-01-16T03:26:06.780Z,99216.00
2019-01-16T03:28:37.537Z,99224.00
2019-01-16T03:31:26.609Z,99213.00
2019-01-16T03:34:03.192Z,99219.00
2019-01-16T03:36:43.389Z,99219.00
2019-01-16T03:39:17.075Z,99208.00
2019-01-16T03:41:48.123Z,99210.00
2019-01-16T03:44:22.406Z,99220.00
2019-01-16T03:46:53.117Z,99215.00
2019-01-16T03:49:35.893Z,99212.00
2019-01-16T03:52:07.221Z,99201.00
2019-01-16T03:54:46.572Z,99207.00
2019-01-16T03:57:34.009Z,99207.00
2019-01-16T04:00:22.869Z,99203.00
2019-01-16T04:03:09.990Z,99203.00
2019-01-16T04:05:57.245Z,99196.00
2019-01-16T04:08:30.694Z,99200.00
2019-01-16T04:11:16.638Z,99195.00
2019-01-16T04:13:47.386Z,99188.00
2019-01-16T04:16:18.773Z,99188.00
2019-01-16T04:18:49.517Z,99171.00
2019-01-16T04:21:20.268Z,99183.00
2019-01-16T04:23:57.430Z,99183.00
2019-01-16T04:26:28.230Z,99171.00
2019-01-16T04:29:15.447Z,99181.00
2019-01-16T04:32:02.823Z,99188.00
2019-01-16T04:34:40.022Z,99179.00
2019-01-16T04:37:29.199Z,99184.00
2019-01-16T04:39:59.951Z,99189.00
2019-01-16T04:42:36.665Z,99195.00
2019-01-16T04:45:24.795Z,99189.00
2019-01-16T04:48:04.937Z,99188.00
2019-01-16T04:50:44.483Z,99194.00
2019-01-16T04:53:20.748Z,99190.00
2019-01-16T04:56:09.544Z,99197.00
2019-01-16T04:58:43.340Z,99193.00
2019-01-16T05:01:25.929Z,99188.00
2019-01-16T05:03:59.614Z,99200.00
2019-01-16T05:06:36.337Z,99194.00
2019-01-16T05:09:09.637Z,99194.00
2019-01-16T05:11:56.685Z,99194.00
2019-01-16T05:14:27.456Z,99186.00
2019-01-16T05:16:58.432Z,99189.00
2019-01-16T05:19:45.107Z,99180.00
2019-01-16T05:22:15.829Z,99184.00
2019-01-16T05:24:52.169Z,99188.00
2019-01-16T05:27:35.392Z,99194.00
2019-01-16T05:30:24.280Z,99197.00
2019-01-16T05:32:58.217Z,99190.00
2019-01-16T05:35:32.608Z,99191.00
2019-01-16T05:38:12.820Z,99192.00
2019-01-16T05:41:00.453Z,99182.00
2019-01-16T05:43:31.173Z,99186.00
2019-01-16T05:46:11.151Z,99191.00
2019-01-16T05:48:50.845Z,99181.00
2019-01-16T05:51:24.521Z,99190.00
2019-01-16T05:53:55.515Z,99183.00
2019-01-16T05:56:42.549Z,99186.00
2019-01-16T05:59:13.816Z,99187.00
2019-01-16T06:01:44.548Z,99192.00
2019-01-16T06:04:20.758Z,99186.00
2019-01-16T06:06:57.512Z,99192.00
2019-01-16T06:09:34.203Z,99178.00
2019-01-16T06:12:21.485Z,99179.00
2019-01-16T06:14:58.167Z,99185.00
2019-01-16T06:17:31.613Z,99180.00
2019-01-16T06:20:02.330Z,99184.00
2019-01-16T06:22:49.573Z,99169.00
2019-01-16T06:25:22.980Z,99163.00
2019-01-16T06:28:02.652Z,99170.00
2019-01-16T06:30:39.141Z,99167.00
2019-01-16T06:33:10.163Z,99148.00
2019-01-16T06:35:40.873Z,99155.00
2019-01-16T06:38:11.640Z,99162.00
2019-01-16T06:40:42.630Z,99149.00
2019-01-16T06:43:22.379Z,99151.00
2019-01-16T06:45:53.106Z,99153.00
2019-01-16T06:48:33.123Z,99154.00
2019-01-16T06:51:12.926Z,99157.00
2019-01-16T06:53:46.594Z,99164.00
2019-01-16T06:56:26.101Z,99162.00
2019-01-16T06:59:02.784Z,99154.00
2019-01-16T07:01:39.853Z,99164.00
2019-01-16T07:04:13.337Z,99161.00
2019-01-16T07:06:59.022Z,99167.00
2019-01-16T07:09:32.939Z,99169.00
2019-01-16T07:12:06.558Z,99166.00
2019-01-16T07:14:37.289Z,99171.00
2019-01-16T07:17:13.497Z,99168.00
2019-01-16T07:19:59.114Z,99170.00
2019-01-16T07:22:32.446Z,99167.00
2019-01-16T07:25:09.150Z,99173.00
2019-01-16T07:27:49.329Z,99174.00
2019-01-16T07:30:29.673Z,99168.00
2019-01-16T07:33:20.217Z,99180.00
2019-01-16T07:35:50.929Z,99176.00
2019-01-16T07:38:31.439Z,99171.00
2019-01-16T07:41:18.965Z,99169.00
2019-01-16T07:44:01.722Z,99182.00
2019-01-16T07:46:49.118Z,99179.00
2019-01-16T07:49:36.480Z,99180.00
2019-01-16T07:52:07.259Z,99172.00
2019-01-16T07:54:37.969Z,99175.00
2019-01-16T07:57:14.844Z,99169.00
2019-01-16T07:59:57.852Z,99168.00
2019-01-16T08:02:44.840Z,99177.00
2019-01-16T08:05:30.649Z,99183.00
2019-01-16T08:08:13.666Z,99179.00
2019-01-16T08:10:50.482Z,99175.00
2019-01-16T08:13:21.682Z,99176.00
2019-01-16T08:16:09.194Z,99165.00
2019-01-16T08:18:39.973Z,99173.00
2019-01-16T08:21:13.410Z,99170.00
2019-01-16T08:23:44.403Z,99181.00
2019-01-16T08:26:31.723Z,99179.00
2019-01-16T08:29:17.394Z,99176.00
2019-01-16T08:31:54.361Z,99179.00
2019-01-16T08:34:37.328Z,99170.00
2019-01-16T08:37:24.274Z,99172.00
2019-01-16T08:39:55.269Z,99181.00
2019-01-16T08:42:28.811Z,99181.00
2019-01-16T08:45:02.777Z,99177.00
2019-01-16T08:47:48.566Z,99177.00
2019-01-16T08:50:19.472Z,99177.00
2019-01-16T08:52:50.258Z,99172.00
2019-01-16T08:55:21.203Z,99178.00
2019-01-16T08:57:52.232Z,99172.00
2019-01-16T09:00:23.221Z,99185.00
2019-01-16T09:03:10.547Z,99184.00
2019-01-16T09:05:41.611Z,99185.00
2019-01-16T09:08:15.296Z,99186.00
2019-01-16T09:10:58.405Z,99187.00
2019-01-16T09:13:47.177Z,99191.00
2019-01-16T09:16:20.647Z,99186.00
2019-01-16T09:18:57.162Z,99187.00
2019-01-16T09:21:44.392Z,99186.00
2019-01-16T09:24:15.105Z,99180.00
2019-01-16T09:26:48.741Z,99180.00
2019-01-16T09:29:28.440Z,99177.00
2019-01-16T09:32:15.216Z,99180.00
2019-01-16T09:35:01.544Z,99177.00
2019-01-16T09:37:32.899Z,99179.00
2019-01-16T09:40:18.643Z,99179.00
2019-01-16T09:43:05.845Z,99180.00
2019-01-16T09:45:45.797Z,99175.00
2019-01-16T09:48:17.118Z,99165.00
2019-01-16T09:50:56.633Z,99165.00
2019-01-16T09:53:45.744Z,99174.00
2019-01-16T09:56:19.747Z,99177.00
2019-01-16T09:58:50.762Z,99173.00
2019-01-16T10:01:24.345Z,99174.00
2019-01-16T10:04:11.669Z,99168.00
2019-01-16T10:06:48.351Z,99163.00
2019-01-16T10:09:31.655Z,99163.00
2019-01-16T10:12:08.597Z,99153.00
2019-01-16T10:14:45.309Z,99161.00
2019-01-16T10:17:16.134Z,99163.00
2019-01-16T10:19:52.933Z,99155.00
2019-01-16T10:22:29.412Z,99158.00
2019-01-16T10:25:12.278Z,99149.00
2019-01-16T10:27:52.154Z,99149.00
2019-01-16T10:30:23.986Z,99147.00
2019-01-16T10:33:09.965Z,99148.00
2019-01-16T10:35:40.968Z,99142.00
2019-01-16T10:38:11.985Z,99146.00
2019-01-16T10:40:54.734Z,99145.00
2019-01-16T10:43:43.507Z,99134.00
2019-01-16T10:46:17.205Z,99122.00
2019-01-16T10:48:56.597Z,99113.00
2019-01-16T10:51:42.699Z,99100.00
2019-01-16T10:54:13.681Z,99100.00
2019-01-16T10:56:59.974Z,99100.00
2019-01-16T10:59:42.828Z,99098.00
2019-01-16T11:02:29.952Z,99095.00
2019-01-16T11:05:17.068Z,99087.00
2019-01-16T11:07:50.913Z,99089.00
2019-01-16T11:10:24.530Z,99083.00
2019-01-16T11:13:01.361Z,99077.00
2019-01-16T11:15:35.032Z,99065.00
2019-01-16T11:18:21.304Z,99067.00
2019-01-16T11:20:54.959Z,99067.00
2019-01-16T11:23:31.692Z,99057.00
2019-01-16T11:26:11.790Z,99056.00
2019-01-16T11:28:43.186Z,99058.00
2019-01-16T11:31:30.445Z,99056.00
2019-01-16T11:34:03.868Z,99041.00
2019-01-16T11:36:53.033Z,99037.00
2019-01-16T11:39:40.261Z,99047.00
2019-01-16T11:42:11.001Z,99033.00
2019-01-16T11:44:56.766Z,99029.00
2019-01-16T11:47:30.492Z,99048.00
2019-01-16T11:50:10.567Z,99015.00
2019-01-16T11:52:47.533Z,99017.00
2019-01-16T11:55:33.279Z,99020.00
2019-01-16T11:58:20.169Z,99017.00
2019-01-16T12:00:57.384Z,99006.00
2019-01-16T12:03:37.621Z,99009.00
2019-01-16T12:06:25.162Z,98993.00
2019-01-16T12:09:12.267Z,98996.00
2019-01-16T12:11:59.454Z,98988.00
2019-01-16T12:14:38.936Z,98987.00
2019-01-16T12:17:26.081Z,98979.00
2019-01-16T12:20:13.628Z,98981.00
2019-01-16T12:22:44.642Z,98971.00
2019-01-16T12:25:18.026Z,98981.00
2019-01-16T12:27:51.569Z,98968.00
2019-01-16T12:30:42.531Z,98975.00
2019-01-16T12:33:16.223Z,98973.00
2019-01-16T12:35:53.172Z,98973.00
2019-01-16T12:38:23.993Z,98967.00
2019-01-16T12:41:11.196Z,98965.00
2019-01-16T12:43:47.854Z,98958.00
2019-01-16T12:46:21.796Z,98957.00
2019-01-16T12:49:01.331Z,98954.00
2019-01-16T12:51:37.806Z,98950.00
2019-01-16T12:54:17.250Z,98941.00
2019-01-16T12:56:56.658Z,98935.00
2019-01-16T12:59:36.607Z,98939.00
2019-01-16T13:02:07.612Z,98930.00
2019-01-16T13:04:44.405Z,98925.00
2019-01-16T13:07:30.153Z,98928.00
2019-01-16T13:10:06.877Z,98916.00
2019-01-16T13:12:46.424Z,98915.00
2019-01-16T13:15:33.835Z,98920.00
2019-01-16T13:18:04.569Z,98921.00
2019-01-16T13:20:50.372Z,98915.00
2019-01-16T13:23:27.395Z,98910.00
2019-01-16T13:26:13.259Z,98904.00
2019-01-16T13:28:44.222Z,98906.00
2019-01-16T13:31:33.173Z,98902.00
2019-01-16T13:34:04.154Z,98898.00
2019-01-16T13:36:34.864Z,98894.00
2019-01-16T13:39:08.869Z,98891.00
2019-01-16T13:41:39.840Z,98878.00
2019-01-16T13:44:26.080Z,98891.00
2019-01-16T13:46:59.709Z,98885.00
2019-01-16T13:49:39.824Z,98887.00
2019-01-16T13:52:22.764Z,98884.00
2019-01-16T13:55:09.833Z,98883.00
2019-01-16T13:57:43.561Z,98880.00
2019-01-16T14:00:15.687Z,98877.00
2019-01-16T14:02:55.605Z,98883.00
2019-01-16T14:05:29.329Z,98879.00
2019-01-16T14:08:06.107Z,98865.00
2019-01-16T14:10:45.851Z,98860.00
2019-01-16T14:13:22.567Z,98869.00
2019-01-16T14:15:59.041Z,98870.00
2019-01-16T14:18:32.429Z,98860.00
2019-01-16T14:21:12.668Z,98871.00
2019-01-16T14:23:46.100Z,98860.00
2019-01-16T14:26:17.397Z,98858.00
2019-01-16T14:28:54.322Z,98871.00
2019-01-16T14:31:25.054Z,98873.00
2019-01-16T14:33:58.694Z,98876.00
2019-01-16T14:36:45.888Z,98873.00
2019-01-16T14:39:19.575Z,98879.00
2019-01-16T14:42:08.224Z,98875.00
2019-01-16T14:44:45.901Z,98875.00
2019-01-16T14:47:17.116Z,98868.00
2019-01-16T14:49:51.678Z,98878.00
2019-01-16T14:52:22.373Z,98871.00
2019-01-16T14:55:06.402Z,98861.00
2019-01-16T14:57:50.912Z,98860.00
2019-01-16T15:00:25.158Z,98855.00
2019-01-16T15:03:05.041Z,98840.00
2019-01-16T15:05:38.801Z,98843.00
2019-01-16T15:08:12.944Z,98848.00
2019-01-16T15:10:43.917Z,98842.00
2019-01-16T15:13:26.932Z,98841.00
2019-01-16T15:16:14.305Z,98832.00
2019-01-16T15:18:50.970Z,98828.00
2019-01-16T15:21:38.117Z,98827.00
2019-01-16T15:24:18.079Z,98821.00
2019-01-16T15:26:54.896Z,98826.00
2019-01-16T15:29:31.823Z,98830.00
2019-01-16T15:32:09.036Z,98833.00
2019-01-16T15:34:43.228Z,98822.00
2019-01-16T15:37:14.270Z,98826.00
2019-01-16T15:39:45.235Z,98830.00
2019-01-16T15:42:32.561Z,98820.00
2019-01-16T15:45:09.196Z,98816.00
2019-01-16T15:47:46.088Z,98815.00
2019-01-16T15:50:35.299Z,98809.00
2019-01-16T15:53:06.127Z,98805.00
2019-01-16T15:55:37.159Z,98802.00
2019-01-16T15:58:19.997Z,98800.00
2019-01-16T16:01:03.276Z,98794.00
2019-01-16T16:03:50.445Z,98795.00
2019-01-16T16:06:24.099Z,98785.00
2019-01-16T16:08:55.098Z,98791.00
2019-01-16T16:11:26.059Z,98788.00
2019-01-16T16:14:13.438Z,98792.00
2019-01-16T16:16:50.212Z,98786.00
2019-01-16T16:19:23.892Z,98788.00
2019-01-16T16:21:54.858Z,98783.00
2019-01-16T16:24:31.579Z,98782.00
2019-01-16T16:27:18.910Z,98774.00
2019-01-16T16:29:52.871Z,98776.00
2019-01-16T16:32:23.828Z,98771.00
2019-01-16T16:35:06.474Z,98762.00
2019-01-16T16:37:40.153Z,98752.00
2019-01-16T16:40:12.201Z,98759.00
2019-01-16T16:42:42.942Z,98760.00
2019-01-16T16:45:14.191Z,98733.00
2019-01-16T16:47:53.573Z,98726.00
2019-01-16T16:50:40.576Z,98712.00
2019-01-16T16:53:11.555Z,98714.00
2019-01-16T16:55:51.505Z,98706.00
2019-01-16T16:58:25.460Z,98698.00
2019-01-16T17:00:59.249Z,98702.00
2019-01-16T17:03:48.363Z,98705.00
2019-01-16T17:06:25.020Z,98688.00
2019-01-16T17:09:05.195Z,98681.00
2019-01-16T17:11:45.218Z,98672.00
2019-01-16T17:14:21.678Z,98677.00
2019-01-16T17:16:58.164Z,98689.00
2019-01-16T17:19:29.416Z,98689.00
2019-01-16T17:22:09.342Z,98688.00
2019-01-16T17:24:49.107Z,98691.00
2019-01-16T17:27:36.047Z,98688.00
2019-01-16T17:30:21.242Z,98676.00
2019-01-16T17:32:52.066Z,98658.00
2019-01-16T17:35:23.047Z,98643.00
2019-01-16T17:37:59.551Z,98635.00
2019-01-16T17:40:46.572Z,98645.00
2019-01-16T17:43:33.516Z,98631.00
2019-01-16T17:46:06.701Z,98622.00
2019-01-16T17:48:37.542Z,98621.00
2019-01-16T17:51:17.059Z,98620.00
2019-01-16T17:54:04.457Z,98621.00
2019-01-16T17:56:51.816Z,98628.00
2019-01-16T17:59:28.277Z,98626.00
2019-01-16T18:01:59.253Z,98613.00
2019-01-16T18:04:33.219Z,98617.00
2019-01-16T18:07:10.183Z,98620.00
2019-01-16T18:09:40.952Z,98605.00
2019-01-16T18:12:14.934Z,98615.00
2019-01-16T18:14:48.413Z,98613.00
2019-01-16T18:17:31.117Z,98619.00
2019-01-16T18:20:17.199Z,98607.00
2019-01-16T18:22:48.179Z,98605.00
2019-01-16T18:25:18.933Z,98599.00
2019-01-16T18:28:05.928Z,98594.00
2019-01-16T18:30:39.653Z,98594.00
2019-01-16T18:33:22.792Z,98593.00
2019-01-16T18:36:02.397Z,98579.00
2019-01-16T18:38:49.477Z,98584.00
2019-01-16T18:41:23.144Z,98572.00
2019-01-16T18:44:10.378Z,98573.00
2019-01-16T18:46:50.430Z,98572.00
2019-01-16T18:49:30.373Z,98564.00
2019-01-16T18:52:01.391Z,98549.00
2019-01-16T18:54:38.344Z,98546.00
2019-01-16T18:57:25.520Z,98540.00
2019-01-16T18:59:59.225Z,98537.00
2019-01-16T19:02:36.143Z,98525.00
2019-01-16T19:05:24.514Z,98519.00
2019-01-16T19:08:11.982Z,98521.00
2019-01-16T19:10:42.969Z,98513.00
2019-01-16T19:13:13.993Z,98521.00
2019-01-16T19:15:44.965Z,98534.00
2019-01-16T19:18:21.430Z,98536.00
2019-01-16T19:21:07.461Z,98539.00
2019-01-16T19:23:50.093Z,98536.00
2019-01-16T19:26:27.018Z,98535.00
2019-01-16T19:29:13.046Z,98540.00
2019-01-16T19:31:44.089Z,98537.00
2019-01-16T19:34:14.895Z,98517.00
2019-01-16T19:37:01.076Z,98513.00
2019-01-16T19:39:48.836Z,98520.00
2019-01-16T19:42:25.846Z,98518.00
2019-01-16T19:44:56.622Z,98504.00
2019-01-16T19:47:33.293Z,98500.00
2019-01-16T19:50:13.426Z,98493.00
2019-01-16T19:53:04.690Z,98486.00
2019-01-16T19:55:44.197Z,98487.00
2019-01-16T19:58:14.920Z,98482.00
2019-01-16T20:00:54.794Z,98480.00
2019-01-16T20:03:42.153Z,98466.00
2019-01-16T20:06:15.672Z,98470.00
2019-01-16T20:08:49.377Z,98470.00
2019-01-16T20:11:26.406Z,98471.00
2019-01-16T20:14:08.845Z,98469.00
2019-01-16T20:16:51.301Z,98455.00
2019-01-16T20:19:25.018Z,98450.00
2019-01-16T20:21:56.191Z,98462.00
2019-01-16T20:24:26.949Z,98455.00
2019-01-16T20:27:12.818Z,98447.00
2019-01-16T20:29:46.280Z,98444.00
2019-01-16T20:32:23.018Z,98449.00
2019-01-16T20:34:56.493Z,98442.00
2019-01-16T20:37:42.210Z,98438.00
2019-01-16T20:40:16.829Z,98436.00
2019-01-16T20:42:47.825Z,98430.00
2019-01-16T20:45:21.848Z,98432.00
2019-01-16T20:48:08.935Z,98430.00
2019-01-16T20:50:39.950Z,98426.00
2019-01-16T20:53:17.582Z,98428.00
2019-01-16T20:55:54.753Z,98414.00
2019-01-16T20:58:25.632Z,98411.00
2019-01-16T21:01:13.163Z,98418.00
2019-01-16T21:03:49.862Z,98415.00
2019-01-16T21:06:23.405Z,98412.00
2019-01-16T21:08:54.510Z,98406.00
2019-01-16T21:14:02.248Z,98407.00
2019-01-16T21:19:11.616Z,98416.00
2019-01-16T21:21:47.942Z,98404.00
2019-01-16T21:24:18.780Z,98395.00
2019-01-16T21:26:50.017Z,98385.00
2019-01-16T21:29:30.033Z,98388.00
2019-01-16T21:32:19.264Z,98386.00
2019-01-16T21:34:53.134Z,98381.00
2019-01-16T21:37:33.229Z,98382.00
2019-01-16T21:40:13.089Z,98378.00
2019-01-16T21:42:43.884Z,98375.00
2019-01-16T21:45:14.981Z,98369.00
2019-01-16T21:48:00.323Z,98364.00
2019-01-16T21:50:43.592Z,98370.00
2019-01-16T21:56:39.444Z,98364.00
2019-01-16T21:59:19.600Z,98358.00
2019-01-16T22:02:09.778Z,98372.00
2019-01-16T22:04:40.601Z,98369.00
2019-01-16T22:07:17.369Z,98366.00
2019-01-16T22:09:48.177Z,98358.00
2019-01-16T22:12:19.270Z,98351.00
2019-01-16T22:15:08.012Z,98358.00
2019-01-16T22:17:39.506Z,98344.00
2019-01-16T22:20:10.600Z,98346.00
2019-01-16T22:22:57.594Z,98336.00
2019-01-16T22:25:44.730Z,98324.00
2019-01-16T22:28:18.424Z,98330.00
2019-01-16T22:30:57.992Z,98314.00
2019-01-16T22:33:46.513Z,98288.00
2019-01-16T22:36:32.888Z,98285.00
2019-01-16T22:39:03.895Z,98285.00
2019-01-16T22:41:34.633Z,98286.00
2019-01-16T22:44:17.864Z,98296.00
2019-01-16T22:46:51.495Z,98302.00
2019-01-16T22:49:22.461Z,98273.00
2019-01-16T22:51:53.327Z,98263.00
2019-01-16T22:54:24.277Z,98272.00
2019-01-16T22:56:57.738Z,98275.00
2019-01-16T22:59:40.434Z,98278.00
2019-01-16T23:02:27.677Z,98288.00
2019-01-16T23:05:01.148Z,98272.00
2019-01-16T23:07:44.500Z,98268.00
2019-01-16T23:10:18.180Z,98255.00
2019-01-16T23:12:54.823Z,98253.00
2019-01-16T23:15:37.744Z,98256.00
2019-01-16T23:18:26.408Z,98254.00
2019-01-16T23:21:00.302Z,98238.00
2019-01-16T23:23:31.331Z,98231.00
2019-01-16T23:26:02.054Z,98230.00
2019-01-16T23:28:35.670Z,98220.00
2019-01-16T23:31:22.521Z,98209.00
2019-01-16T23:34:05.598Z,98211.00
2019-01-16T23:36:39.090Z,98210.00
2019-01-16T23:39:09.898Z,98208.00
2019-01-16T23:41:40.922Z,98208.00
2019-01-16T23:44:11.895Z,98186.00
2019-01-16T23:46:45.541Z,98193.00
2019-01-16T23:49:27.943Z,98200.00
2019-01-16T23:52:10.667Z,98194.00
2019-01-16T23:54:41.494Z,98177.00
2019-01-16T23:57:24.402Z,98185.00
2019-01-16T23:59:55.403Z,98186.00
